Royale Atlantic — FGD8150 — position and weather

sailwx.info

Track history (hours):
 
Tides and Currents Weather Stations Pressure Air Temp Water Temp Dewpoint Dewpoint Depression Visibility Wind Speed Wind Dir Waves Ship Positions

Royale Atlantic

Last reported at 2017-Dec-18 13:49 UTC. Time now 2018-Jan-19 17:37 UTC.
Position N 47°35' W 003°02'.
Warning: this ship's position is 32 days out of date.

Length 12 m.

Type: Pleasure craft. MMSI: 227593450.

Date/timePositionNaut miles runAvg speedWind from/ knotsBaromVisibWave heightAir tempDewpointWater temp
2017-Dec-18 13:49N 47°35' W 003°02'0 0.0
2017-Dec-18 13:30N 47°35' W 003°02'0 0.0
2017-Dec-17 17:59N 47°35' W 003°02'611.5
2017-Dec-17 17:30N 47°30' W 003°03'713.1
2017-Dec-17 17:00N 47°29' W 003°13'917.7
2017-Dec-17 16:30N 47°31' W 003°26'5517.6
2017-Dec-17 13:23N 47°56' W 004°37'717.1
2017-Dec-17 13:00N 48°01' W 004°44'714.5
2017-Dec-17 12:30N 48°08' W 004°42'816.6
2017-Dec-17 12:00N 48°16' W 004°39'816.5
2017-Dec-17 11:30N 48°22' W 004°30'3 6.1
2017-Dec-17 11:00N 48°24' W 004°26'2 4.9
2017-Dec-17 10:30N 48°23' W 004°29'0 0.4
2017-Dec-17 09:59N 48°23' W 004°29'1 2.6
2017-Dec-17 09:30N 48°22' W 004°30'3 5.5
2017-Dec-17 09:00N 48°20' W 004°34'4 8.2
2017-Dec-17 08:30N 48°17' W 004°38'1 1.9
2017-Dec-17 08:00N 48°18' W 004°39'3 6.7
2017-Dec-17 07:30N 48°18' W 004°44'713.6
2017-Dec-17 06:59N 48°18' W 004°55'3 6.6
2017-Dec-17 06:29N 48°18' W 004°60'612.8
2017-Dec-17 06:00N 48°24' W 005°04'711.0
2017-Dec-17 05:23N 48°29' W 004°57'3 8.3
2017-Dec-17 05:00N 48°27' W 004°53'5 9.6
2017-Dec-17 04:30N 48°23' W 004°49'4 8.3
2017-Dec-17 04:00N 48°19' W 004°46'510.6
2017-Dec-17 03:30N 48°20' W 004°38'611.2
2017-Dec-17 03:00N 48°22' W 004°30'1 2.4
2017-Dec-17 02:30N 48°23' W 004°29'0 0.0
2017-Dec-16 18:23N 48°23' W 004°29'0 0.0
2017-Dec-16 17:59N 48°23' W 004°29'3 7.0
2017-Dec-16 17:31N 48°21' W 004°33'611.6
2017-Dec-16 17:01N 48°16' W 004°38'714.1
2017-Dec-16 16:30N 48°09' W 004°42'714.6
2017-Dec-16 16:00N 48°03' W 004°46'814.0
2017-Dec-16 15:25N 47°56' W 004°38'5214.3
2017-Dec-16 11:48N 47°32' W 003°30'516.0
2017-Dec-16 11:30N 47°30' W 003°23'612.6
2017-Dec-16 11:00N 47°29' W 003°14'611.3
2017-Dec-16 10:30N 47°28' W 003°06'5 9.8
2017-Dec-16 10:00N 47°31' W 003°02'4 7.5
2017-Dec-16 09:30N 47°35' W 003°02'  
2017-Dec-12 14:07N 47°35' W 003°02'0 0.0
2017-Dec-12 13:58N 47°35' W 003°02'0 0.0
2017-Dec-11 09:50N 47°35' W 003°02'0 0.0
2017-Dec-11 09:30N 47°35' W 003°02'  
Track history (hours):
 
Tides and Currents Weather Stations Pressure Air Temp Water Temp Dewpoint Dewpoint Depression Visibility Wind Speed Wind Dir Waves Ship Positions

Royale Atlantic

Last reported at 2017-Dec-18 13:49 UTC. Time now 2018-Jan-19 17:37 UTC.
Position N 47°35' W 003°02'.
Warning: this ship's position is 32 days out of date.

Length 12 m.

Type: Pleasure craft. MMSI: 227593450.

Date/timePositionNaut miles runAvg speedWind from/ knotsBaromVisibWave heightAir tempDewpointWater temp
2017-Dec-18 13:49N 47°35' W 003°02'0 0.0
2017-Dec-18 13:30N 47°35' W 003°02'0 0.0
2017-Dec-17 17:59N 47°35' W 003°02'611.5
2017-Dec-17 17:30N 47°30' W 003°03'713.1
2017-Dec-17 17:00N 47°29' W 003°13'917.7
2017-Dec-17 16:30N 47°31' W 003°26'5517.6
2017-Dec-17 13:23N 47°56' W 004°37'717.1
2017-Dec-17 13:00N 48°01' W 004°44'714.5
2017-Dec-17 12:30N 48°08' W 004°42'816.6
2017-Dec-17 12:00N 48°16' W 004°39'816.5
2017-Dec-17 11:30N 48°22' W 004°30'3 6.1
2017-Dec-17 11:00N 48°24' W 004°26'2 4.9
2017-Dec-17 10:30N 48°23' W 004°29'0 0.4
2017-Dec-17 09:59N 48°23' W 004°29'1 2.6
2017-Dec-17 09:30N 48°22' W 004°30'3 5.5
2017-Dec-17 09:00N 48°20' W 004°34'4 8.2
2017-Dec-17 08:30N 48°17' W 004°38'1 1.9
2017-Dec-17 08:00N 48°18' W 004°39'3 6.7
2017-Dec-17 07:30N 48°18' W 004°44'713.6
2017-Dec-17 06:59N 48°18' W 004°55'3 6.6
2017-Dec-17 06:29N 48°18' W 004°60'612.8
2017-Dec-17 06:00N 48°24' W 005°04'711.0
2017-Dec-17 05:23N 48°29' W 004°57'3 8.3
2017-Dec-17 05:00N 48°27' W 004°53'5 9.6
2017-Dec-17 04:30N 48°23' W 004°49'4 8.3
2017-Dec-17 04:00N 48°19' W 004°46'510.6
2017-Dec-17 03:30N 48°20' W 004°38'611.2
2017-Dec-17 03:00N 48°22' W 004°30'1 2.4
2017-Dec-17 02:30N 48°23' W 004°29'0 0.0
2017-Dec-16 18:23N 48°23' W 004°29'0 0.0
2017-Dec-16 17:59N 48°23' W 004°29'3 7.0
2017-Dec-16 17:31N 48°21' W 004°33'611.6
2017-Dec-16 17:01N 48°16' W 004°38'714.1
2017-Dec-16 16:30N 48°09' W 004°42'714.6
2017-Dec-16 16:00N 48°03' W 004°46'814.0
2017-Dec-16 15:25N 47°56' W 004°38'5214.3
2017-Dec-16 11:48N 47°32' W 003°30'516.0
2017-Dec-16 11:30N 47°30' W 003°23'612.6
2017-Dec-16 11:00N 47°29' W 003°14'611.3
2017-Dec-16 10:30N 47°28' W 003°06'5 9.8
2017-Dec-16 10:00N 47°31' W 003°02'4 7.5
2017-Dec-16 09:30N 47°35' W 003°02'  
2017-Dec-12 14:07N 47°35' W 003°02'0 0.0
2017-Dec-12 13:58N 47°35' W 003°02'0 0.0
2017-Dec-11 09:50N 47°35' W 003°02'0 0.0
2017-Dec-11 09:30N 47°35' W 003°02'  

Dump ship's entire track history